createdAt,value
2023-02-24T05:53:55.081Z,58.30
2023-02-24T05:56:24.667Z,59.80
2023-02-24T05:59:01.148Z,57.70
2023-02-24T06:01:29.700Z,56.90
2023-02-24T06:04:05.059Z,53.10
2023-02-24T06:06:39.594Z,58.40
2023-02-24T06:09:15.108Z,50.80
2023-02-24T06:11:42.773Z,51.90
2023-02-24T06:14:11.598Z,55.10
2023-02-24T06:16:41.610Z,53.50
2023-02-24T06:19:17.878Z,54.90
2023-02-24T06:22:10.958Z,58.20
2023-02-24T06:24:38.834Z,53.50
2023-02-24T06:27:16.926Z,52.10
2023-02-24T06:29:51.876Z,54.90
2023-02-24T06:32:20.496Z,52.30
2023-02-24T06:34:47.389Z,53.30
2023-02-24T06:37:15.624Z,53.80
2023-02-24T06:39:44.205Z,51.60
2023-02-24T06:42:12.036Z,50.10
2023-02-24T06:44:40.995Z,47.80
2023-02-24T06:47:12.676Z,46.50
2023-02-24T06:49:41.071Z,42.60
2023-02-24T06:52:17.730Z,44.30
2023-02-24T06:54:47.768Z,40.60
2023-02-24T06:57:14.899Z,40.30
2023-02-24T06:59:45.688Z,36.90
2023-02-24T07:02:12.274Z,36.90
2023-02-24T07:04:45.180Z,39.40
2023-02-24T07:07:16.603Z,38.20
2023-02-24T07:09:44.622Z,34.60
2023-02-24T07:12:22.611Z,38.70
2023-02-24T07:14:49.968Z,38.40
2023-02-24T07:17:18.399Z,40.20
2023-02-24T07:19:47.608Z,39.10
2023-02-24T07:22:16.289Z,39.20
2023-02-24T07:24:47.245Z,41.50
2023-02-24T07:27:21.412Z,42.10
2023-02-24T09:28:47.991Z,45.70
2023-02-24T09:31:18.420Z,40.60
2023-02-24T09:33:50.451Z,38.80
2023-02-24T09:36:28.313Z,29.70
2023-02-24T09:55:16.198Z,27.20
2023-02-24T09:58:08.470Z,24.30
2023-02-24T10:00:43.287Z,28.30
2023-02-24T10:03:24.224Z,26.40
2023-02-24T10:06:11.382Z,26.50
2023-02-24T10:08:42.050Z,22.10
2023-02-24T10:11:11.413Z,25.30
2023-02-24T10:13:49.124Z,26.00
2023-02-24T10:16:24.366Z,28.80
2023-02-24T10:19:17.320Z,28.20
2023-02-24T10:22:08.808Z,31.90
2023-02-24T10:24:47.089Z,30.70
2023-02-24T10:27:23.206Z,25.80
2023-02-24T10:30:18.999Z,30.50
2023-02-24T10:32:52.568Z,32.70
2023-02-24T10:35:25.196Z,35.10
2023-02-24T10:40:42.856Z,37.90
2023-02-24T10:43:10.174Z,41.60
2023-02-24T10:45:44.422Z,44.00
2023-02-24T10:48:41.319Z,43.80
2023-02-24T11:33:41.947Z,50.20
2023-02-24T11:36:19.841Z,47.60
2023-02-24T11:39:15.452Z,50.90
2023-02-24T11:41:46.858Z,44.90
2023-02-24T11:44:30.113Z,54.00
2023-02-24T11:47:17.777Z,54.50
2023-02-24T11:49:52.679Z,53.40
2023-02-24T11:52:33.278Z,49.90
2023-02-24T11:55:04.806Z,54.20
2023-02-24T11:57:41.471Z,55.40
2023-02-24T12:00:19.478Z,59.10
2023-02-24T12:03:17.669Z,50.00
2023-02-24T12:05:49.605Z,51.20
2023-02-24T12:08:34.585Z,45.30
2023-02-24T12:11:13.381Z,45.60
2023-02-24T12:14:04.293Z,46.00
2023-02-24T12:16:39.830Z,44.00
2023-02-24T12:19:27.435Z,44.70
2023-02-24T12:22:05.494Z,46.50
2023-02-24T12:24:35.854Z,41.70
2023-02-24T12:27:14.885Z,41.10
2023-02-24T12:30:05.676Z,37.20
2023-02-24T12:32:59.461Z,36.10
2023-02-24T12:35:44.116Z,40.80
2023-02-24T12:38:40.533Z,39.10
2023-02-24T12:41:54.973Z,36.80
2023-02-24T12:44:50.691Z,37.20
2023-02-24T12:47:31.829Z,35.00
2023-02-24T12:50:11.800Z,38.50
2023-02-24T12:53:07.582Z,36.80
2023-02-24T12:55:46.018Z,35.20
2023-02-24T12:58:20.116Z,35.40
2023-02-24T13:01:11.574Z,36.60
2023-02-24T13:04:06.263Z,37.70
2023-02-24T13:06:55.434Z,35.30
2023-02-24T13:45:34.373Z,22.50
2023-02-24T13:48:26.111Z,23.30
2023-02-24T13:51:07.865Z,22.20
2023-02-24T13:53:58.122Z,23.00
2023-02-24T13:56:49.452Z,21.90
2023-02-24T14:00:01.197Z,22.10
2023-02-24T14:13:29.355Z,21.50
2023-02-24T14:15:58.197Z,21.30
2023-02-24T14:18:27.276Z,19.90
2023-02-24T14:20:56.308Z,21.00
2023-02-24T14:23:26.945Z,20.90
2023-02-24T14:25:56.729Z,20.30
2023-02-24T14:28:30.370Z,23.50
2023-02-24T14:31:00.107Z,23.60
2023-02-24T14:33:33.615Z,24.90
2023-02-24T14:36:01.232Z,22.00
2023-02-24T14:38:39.541Z,21.20
2023-02-24T14:41:35.969Z,21.70
2023-02-24T14:44:41.025Z,17.00
2023-02-24T14:47:13.617Z,16.70
2023-02-24T14:52:39.007Z,18.60
2023-02-24T14:55:25.363Z,20.20
2023-02-24T14:57:57.833Z,20.10
2023-02-24T15:00:42.730Z,22.50
2023-02-24T15:03:23.077Z,22.40
2023-02-24T15:05:53.998Z,25.10
2023-02-24T15:08:43.426Z,24.30
2023-02-24T15:11:20.680Z,21.90
2023-02-24T15:13:54.402Z,25.60
2023-02-24T15:16:26.569Z,25.70
2023-02-24T15:18:58.449Z,25.10
2023-02-24T15:21:32.825Z,25.40
2023-02-24T15:24:30.352Z,26.50
2023-02-24T15:27:01.873Z,30.60
2023-02-24T15:29:31.601Z,24.90
2023-02-24T15:32:00.267Z,22.90
2023-02-24T15:34:34.436Z,25.40
2023-02-24T15:37:22.659Z,25.00
2023-02-24T15:39:51.809Z,24.50
2023-02-24T15:42:27.727Z,24.80
2023-02-24T15:45:01.195Z,25.70
2023-02-24T15:47:43.178Z,23.10
2023-02-24T15:50:11.627Z,23.70
2023-02-24T15:52:44.269Z,25.80
2023-02-24T15:55:21.258Z,24.40
2023-02-24T15:57:56.976Z,27.40
2023-02-24T16:00:24.104Z,26.80
2023-02-24T16:02:50.514Z,29.40
2023-02-24T16:05:22.728Z,29.00
2023-02-24T16:07:54.085Z,26.60
2023-02-24T16:10:27.582Z,26.30
2023-02-24T16:13:00.180Z,26.30
2023-02-24T16:15:30.218Z,31.30
2023-02-24T16:17:57.455Z,30.10
2023-02-24T16:20:26.794Z,26.20
2023-02-24T16:23:04.978Z,27.50
2023-02-24T16:25:41.716Z,25.20
2023-02-24T16:28:16.904Z,24.40
2023-02-24T16:30:45.958Z,23.90
2023-02-24T16:33:17.044Z,26.80
2023-02-24T16:35:45.027Z,31.00
2023-02-24T16:38:18.821Z,25.80
2023-02-24T16:40:47.561Z,30.00
2023-02-24T16:43:16.684Z,25.10
2023-02-24T16:45:45.354Z,27.90
2023-02-24T16:48:23.750Z,26.10
2023-02-24T16:50:53.010Z,30.10
2023-02-24T16:53:24.833Z,33.70
2023-02-24T16:55:51.932Z,22.00
2023-02-24T16:58:19.164Z,31.20
2023-02-24T17:00:49.137Z,31.40
2023-02-24T17:03:20.066Z,29.00
2023-02-24T17:05:47.118Z,34.70
2023-02-24T17:08:15.297Z,33.40
2023-02-24T17:10:43.210Z,32.50
2023-02-24T17:13:15.904Z,34.20
2023-02-24T17:18:11.813Z,35.20
2023-02-24T17:20:39.889Z,30.40
2023-02-24T17:23:06.697Z,31.00
2023-02-24T17:25:33.269Z,30.80
2023-02-24T17:28:00.410Z,27.90
2023-02-24T17:30:33.126Z,33.00
2023-02-24T17:33:00.927Z,27.40
2023-02-24T17:35:29.997Z,31.30
2023-02-24T17:37:56.552Z,31.70
2023-02-24T17:40:23.544Z,27.50
2023-02-24T17:42:50.704Z,27.50
2023-02-24T17:45:20.278Z,25.70
2023-02-24T17:47:46.863Z,29.90
2023-02-24T17:50:13.757Z,26.80
2023-02-24T17:52:43.867Z,27.60
2023-02-24T17:55:12.696Z,23.20
2023-02-24T17:57:42.608Z,21.00
2023-02-24T18:00:12.453Z,30.30
2023-02-24T18:02:39.630Z,24.10
2023-02-24T18:05:11.242Z,25.60
2023-02-24T18:07:37.783Z,28.10
2023-02-24T18:10:05.285Z,25.80
2023-02-24T18:12:31.990Z,28.50
2023-02-24T18:15:08.235Z,24.50
2023-02-24T18:17:36.753Z,25.50
2023-02-24T18:20:05.056Z,26.70
2023-02-24T18:22:31.561Z,24.00
2023-02-24T18:24:58.742Z,25.60
2023-02-24T18:27:25.316Z,26.80
2023-02-24T18:29:53.048Z,27.70
2023-02-24T18:32:22.832Z,28.20
2023-02-24T18:34:52.199Z,36.00
2023-02-24T18:37:19.526Z,34.90
2023-02-24T18:39:46.175Z,35.20
2023-02-24T18:42:12.723Z,31.80
2023-02-24T18:44:39.413Z,35.30
2023-02-24T18:47:08.819Z,38.00
2023-02-24T18:49:36.632Z,37.90
2023-02-24T18:52:04.605Z,34.40
2023-02-24T18:54:33.141Z,41.10
2023-02-24T18:56:59.698Z,39.90
2023-02-24T18:59:26.206Z,38.40
2023-02-24T19:01:53.578Z,46.90
2023-02-24T19:04:22.750Z,40.00
2023-02-24T19:06:51.722Z,40.30
2023-02-24T19:09:23.257Z,38.80
2023-02-24T19:11:51.401Z,37.00
2023-02-24T19:14:18.008Z,40.10
2023-02-24T19:16:44.939Z,39.00
2023-02-24T19:19:13.506Z,35.90
2023-02-24T19:21:39.966Z,32.10
2023-02-24T19:24:10.410Z,36.40
2023-02-24T19:26:39.281Z,36.20
2023-02-24T19:29:05.704Z,34.70
2023-02-24T19:31:32.970Z,40.00
2023-02-24T19:34:06.199Z,39.20
2023-02-24T19:36:36.476Z,34.70
2023-02-24T19:39:04.355Z,41.50
2023-02-24T19:41:30.858Z,40.10
2023-02-24T19:44:00.346Z,43.00
2023-02-24T19:46:28.329Z,40.50
2023-02-24T19:48:57.248Z,33.20
2023-02-24T19:51:24.613Z,41.20
2023-02-24T19:53:53.863Z,41.30
2023-02-24T19:56:29.165Z,38.80
2023-02-24T19:58:57.473Z,36.60
2023-02-24T20:01:25.050Z,39.90
2023-02-24T20:03:58.363Z,36.30
2023-02-24T20:06:26.354Z,38.90
2023-02-24T20:08:53.975Z,40.80
2023-02-24T20:11:23.994Z,38.40
2023-02-24T20:13:52.378Z,42.60
2023-02-24T20:16:21.912Z,37.00
2023-02-24T20:18:53.110Z,44.90
2023-02-24T20:21:22.421Z,38.80
2023-02-24T20:23:51.859Z,32.90
2023-02-24T20:26:19.597Z,32.20
2023-02-24T20:28:49.797Z,31.60
2023-02-24T20:31:18.839Z,32.10
2023-02-24T20:33:51.588Z,27.80
2023-02-24T20:38:53.667Z,26.80
2023-02-24T20:41:21.247Z,30.00
2023-02-24T20:43:48.359Z,29.70
2023-02-24T20:46:23.306Z,24.00
2023-02-24T20:48:51.633Z,24.60
2023-02-24T20:51:20.868Z,28.00
2023-02-24T20:53:57.445Z,21.90
2023-02-24T20:56:27.771Z,22.80
2023-02-24T20:59:03.360Z,25.10
2023-02-24T21:01:31.252Z,19.70
2023-02-24T21:03:58.358Z,20.00
2023-02-24T21:06:25.845Z,18.00
2023-02-24T21:08:52.912Z,23.10
2023-02-24T21:11:20.313Z,23.00
2023-02-24T21:13:48.393Z,22.10
2023-02-24T21:16:16.584Z,19.40
2023-02-24T21:18:47.541Z,22.70
2023-02-24T21:21:15.433Z,21.80
2023-02-24T21:23:46.833Z,20.30
2023-02-24T21:26:14.080Z,17.20
2023-02-24T21:28:43.540Z,20.20
2023-02-24T21:31:16.080Z,17.70
2023-02-24T21:33:43.102Z,20.30
2023-02-24T21:36:14.040Z,17.50
2023-02-24T21:38:47.594Z,20.60
2023-02-24T21:41:20.776Z,18.30
2023-02-24T21:43:51.819Z,18.50
2023-02-24T21:46:18.679Z,22.40
2023-02-24T21:48:45.325Z,18.50
2023-02-24T21:51:13.236Z,20.70
2023-02-24T21:53:43.037Z,24.30
2023-02-24T21:56:15.787Z,21.80
2023-02-24T21:58:58.304Z,19.70
2023-02-24T22:04:59.940Z,22.50
2023-02-24T22:07:44.438Z,25.80
2023-02-24T22:10:24.221Z,23.10
2023-02-24T22:12:55.391Z,24.50
2023-02-24T22:15:22.225Z,20.00
2023-02-24T22:20:37.389Z,24.60
2023-02-24T22:23:03.778Z,23.90
2023-02-24T22:25:30.531Z,16.70
2023-02-24T22:27:56.981Z,22.10
2023-02-24T22:30:23.646Z,19.60
2023-02-24T22:32:50.245Z,20.00
2023-02-24T22:35:17.011Z,19.10
2023-02-24T22:37:43.674Z,19.40
2023-02-24T22:40:10.775Z,22.40
2023-02-24T22:42:37.289Z,16.70
2023-02-24T22:45:04.388Z,16.70
2023-02-24T22:47:30.914Z,19.40
2023-02-24T22:49:57.421Z,21.60
2023-02-24T22:52:25.697Z,19.10
2023-02-24T22:54:52.217Z,19.10
2023-02-24T22:57:18.807Z,21.70
2023-02-24T22:59:45.654Z,18.50
2023-02-24T23:02:12.259Z,19.80
2023-02-24T23:04:38.776Z,19.90
2023-02-24T23:07:05.396Z,21.40
2023-02-24T23:09:32.096Z,21.20
2023-02-24T23:11:58.668Z,19.70
2023-02-24T23:14:26.160Z,18.40
2023-02-24T23:16:54.915Z,22.90
2023-02-24T23:19:22.394Z,20.00
2023-02-24T23:21:52.521Z,18.30
2023-02-24T23:24:20.966Z,20.40
2023-02-24T23:26:53.363Z,21.30
2023-02-24T23:29:21.394Z,23.10
2023-02-24T23:31:48.084Z,18.10
2023-02-24T23:34:18.238Z,26.20
2023-02-24T23:36:46.300Z,19.00
2023-02-24T23:39:15.050Z,20.80
2023-02-24T23:41:41.781Z,21.90
2023-02-24T23:44:08.235Z,23.80
2023-02-24T23:46:37.307Z,20.80
2023-02-24T23:49:04.562Z,20.60
2023-02-24T23:51:47.192Z,22.90
2023-02-24T23:54:17.754Z,21.80
2023-02-24T23:56:46.896Z,25.80
2023-02-24T23:59:13.978Z,19.80
